Annamoriah, WV

12:28 PM EDT on April 26, 2015 (GMT -0400)
Wood County Wilson | | Change Station
CLOSE
Current Station
Airport
Location: Parkersburg,
Elevation: 860 ft
Nearby Weather Stations

Elev 860 ft 39.35 °N, 81.44 °W | Updated 35 minutes ago

Partly Cloudy
Partly Cloudy
57 °F
Feels Like 57 °F
N
8
Wind Variable Wind from East

Today
High -- | Low -- °F
--% Chance of Precip.
Yesterday
High -- | Low -- °F
Precip. -- in
6:33 AM 8:12 PM
First Quarter, 57% visible
Pressure 29.80 in
Visibility 10.0 miles
Clouds Few 12000 ft
Dew Point 32 °F
Humidity 39%
Rainfall 0.00 in
Snow Depth Not available.
UV 9 out of 12
Pollen 6.80 out of 12
Air Quality Not available.
Flu Activity Sporadic
METAR KPKB 261553Z 08007KT 10SM FEW120 14/00 A2979 RMK AO2 SLP089 T01390000

More Conditions Fewer Conditions

Pressure 29.80 in
Visibility 10.0 miles
Clouds Few 12000 ft
Dew Point 32 °F
Humidity 39%
Rainfall 0.00 in
Snow Depth Not available.
UV 9 out of 12
Pollen 6.80 out of 12
Air Quality Not available.
Flu Activity Sporadic
METAR KPKB 261553Z 08007KT 10SM FEW120 14/00 A2979 RMK AO2 SLP089 T01390000

More Conditions Fewer Conditions

The full scope of the disaster following a powerful 7.8-magnitude earthquake in Nepal may not come into view for days, but global charities are already sending emergency aid. Click to see how you can help.

10-Day Weather Forecast

Almanac

Astronomy

Apr. 26, 2015 Rise Set
Actual Time
Civil Twilight
Nautical Twilight
Astronomical Twilight
Moon
Length of Visible Light
Length of Day
Tomorrow will be .
, % of the Moon is Illuminated

Today's Extremes

State Highs State Lows

Community

WunderPhotos

Upload Photos

1,817,049 photos uploaded!

WunderBlogs® & News

Nearby

Air Quality

  Air Quality AQ Index Pollutant
Not available.

Snow Depth

Station Depth Elevation

Earthquake Activity

City Distance Mag. Time & Date
Minimum magnitude displayed is 2.5.

Coastal Water Temperatures

Place Temperature

Stations

Nearby Weather Stations

Station Location Temp. Windchill Dew Point Humidity Wind Precip. Elev Updated Type